SBOSBO KTT / EFKT
Speedbird OnlineSpeedbird Online KTT / EFKT

Kittilä Airport
12:31 14°C

Location Kittila, Finland
Latitude: 67.700996398926
Longitude: 24.846799850464
Local Time 12:31 on 17 Jun 2024
UTC +3 hours (Europe/Helsinki)
Currency £1 equals EUR 1.19
METAR EFKT 170920Z AUTO 16009KT 6000 2100 +SHRA SCT003 OVC037 //////CB 13/13 Q1017
TAF TAF EFKT 170832Z 1709/1715 17008KT 9999 -SHRA BKN004 SCT020CB BECMG 1709/1711 BKN020 TEMPO 1709/1711 4000 +SHRA TEMPO 1711/1715 FEW040CB
Weather As Of 17 Jun 2024 12:31
Description Light intensity shower rain
Wind 15 km/h from South-East (150°)
Cloud Cover 75%
Precipitation Rain: none, Snow: none
Sunrise 02:00
Sunset 02:00
Web Airport Website | Wikipedia
Codes IATA: KTT
ICAO: EFKT
Altitude 196 Meter / 644 Feet
Distance 2,242 KM / 1,393 Miles
from London.
Runways
RunwayLength (m)Surface
162500Asphalt
342500Asphalt
Radio
TypeDescriptionFrequency
AFISAFIS118.95
ATISATIS133.85
Live ATC



Support Speedbird Online

© 2017-2024 Speedbird Online